Time,TemperatureF,DewpointF,PressureIn,WindDirection,WindDirectionDegrees,WindSpeedMPH,WindSpeedGustMPH,Humidity,HourlyPrecipIn,Conditions,Clouds,dailyrainin,SoftwareType,DateUTC
2013-01-16 00:05:00,38.9,30.3,30.43,East,96,0.0,0.0,71,0.00,,,0.00,Wunderground v.1.15,2013-01-16 08:05:00,
2013-01-16 00:15:00,38.0,29.8,30.43,East,96,0.0,0.0,72,0.00,,,0.00,Wunderground v.1.15,2013-01-16 08:15:00,
2013-01-16 00:20:00,37.5,30.0,30.43,East,96,0.0,0.0,74,0.00,,,0.00,Wunderground v.1.15,2013-01-16 08:20:00,
2013-01-16 00:30:00,37.2,29.7,30.43,East,96,0.0,0.0,74,0.00,,,0.00,Wunderground v.1.15,2013-01-16 08:30:00,
2013-01-16 00:55:00,37.4,30.2,30.43,East,96,0.0,0.0,75,0.00,,,0.00,Wunderground v.1.15,2013-01-16 08:55:00,
2013-01-16 01:05:00,37.0,30.1,30.43,East,96,0.0,0.0,76,0.00,,,0.00,Wunderground v.1.15,2013-01-16 09:05:00,
2013-01-16 01:15:00,36.8,29.9,30.43,East,96,0.0,0.0,76,0.00,,,0.00,Wunderground v.1.15,2013-01-16 09:15:00,
2013-01-16 01:20:00,36.7,29.8,30.43,East,96,0.0,0.0,76,0.00,,,0.00,Wunderground v.1.15,2013-01-16 09:20:00,
2013-01-16 01:30:00,36.2,29.7,30.44,East,96,0.0,0.0,77,0.00,,,0.00,Wunderground v.1.15,2013-01-16 09:30:00,
2013-01-16 01:45:00,35.5,29.6,30.44,East,99,0.0,0.0,79,0.00,,,0.00,Wunderground v.1.15,2013-01-16 09:45:00,
2013-01-16 02:00:00,35.8,30.2,30.44,East,99,0.0,0.0,80,0.00,,,0.00,Wunderground v.1.15,2013-01-16 10:00:00,
2013-01-16 02:10:00,35.8,29.9,30.45,NE,40,0.0,0.0,79,0.00,,,0.00,Wunderground v.1.15,2013-01-16 10:10:00,
2013-01-16 02:25:00,35.5,29.6,30.45,NE,40,0.0,0.0,79,0.00,,,0.00,Wunderground v.1.15,2013-01-16 10:25:00,
2013-01-16 02:30:00,35.3,29.7,30.45,NE,40,0.0,0.0,80,0.00,,,0.00,Wunderground v.1.15,2013-01-16 10:30:00,
2013-01-16 02:35:00,35.5,29.9,30.45,NE,40,0.0,0.0,80,0.00,,,0.00,Wunderground v.1.15,2013-01-16 10:35:00,
2013-01-16 02:45:00,35.8,30.2,30.45,NE,40,0.0,0.0,80,0.00,,,0.00,Wunderground v.1.15,2013-01-16 10:45:00,
2013-01-16 03:05:00,36.1,30.2,30.44,NE,40,0.0,0.0,79,0.00,,,0.00,Wunderground v.1.15,2013-01-16 11:05:00,
2013-01-16 03:15:00,35.3,29.7,30.44,NE,40,0.0,0.0,80,0.00,,,0.00,Wunderground v.1.15,2013-01-16 11:15:00,
2013-01-16 03:20:00,35.2,30.0,30.44,NE,40,0.0,0.0,81,0.00,,,0.00,Wunderground v.1.15,2013-01-16 11:20:00,
2013-01-16 03:30:00,35.4,30.1,30.43,NE,40,0.0,0.0,81,0.00,,,0.00,Wunderground v.1.15,2013-01-16 11:30:00,
2013-01-16 03:40:00,35.2,29.6,30.43,NE,40,0.0,0.0,80,0.00,,,0.00,Wunderground v.1.15,2013-01-16 11:40:00,
2013-01-16 03:45:00,35.0,29.8,30.43,NE,40,0.0,0.0,81,0.00,,,0.00,Wunderground v.1.15,2013-01-16 11:45:00,
2013-01-16 03:55:00,35.2,30.0,30.43,NE,40,0.0,0.0,81,0.00,,,0.00,Wunderground v.1.15,2013-01-16 11:55:00,
2013-01-16 04:05:00,35.4,29.5,30.43,NE,40,0.0,0.0,79,0.00,,,0.00,Wunderground v.1.15,2013-01-16 12:05:00,
2013-01-16 04:15:00,34.8,29.3,30.43,NE,40,0.0,0.0,80,0.00,,,0.00,Wunderground v.1.15,2013-01-16 12:15:00,
2013-01-16 04:25:00,34.4,28.9,30.42,NE,40,0.0,0.0,80,0.00,,,0.00,Wunderground v.1.15,2013-01-16 12:25:00,
2013-01-16 04:40:00,34.9,29.4,30.42,NE,40,0.0,0.0,80,0.00,,,0.00,Wunderground v.1.15,2013-01-16 12:40:00,
2013-01-16 05:00:00,34.5,29.6,30.42,NE,39,0.0,0.0,82,0.00,,,0.00,Wunderground v.1.15,2013-01-16 13:00:00,
2013-01-16 05:05:00,34.4,29.2,30.41,NE,39,0.0,0.0,81,0.00,,,0.00,Wunderground v.1.15,2013-01-16 13:05:00,
2013-01-16 05:15:00,34.6,29.4,30.41,NE,39,0.0,0.0,81,0.00,,,0.00,Wunderground v.1.15,2013-01-16 13:15:00,
2013-01-16 05:25:00,34.5,29.3,30.41,NE,39,0.0,0.0,81,0.00,,,0.00,Wunderground v.1.15,2013-01-16 13:25:00,
2013-01-16 05:30:00,34.5,29.3,30.40,NE,39,0.0,0.0,81,0.00,,,0.00,Wunderground v.1.15,2013-01-16 13:30:00,
2013-01-16 05:40:00,34.6,29.4,30.40,NE,39,0.0,0.0,81,0.00,,,0.00,Wunderground v.1.15,2013-01-16 13:40:00,
2013-01-16 05:50:00,34.2,29.0,30.40,NE,39,0.0,0.0,81,0.00,,,0.00,Wunderground v.1.15,2013-01-16 13:50:00,
2013-01-16 06:00:00,33.9,28.7,30.41,NE,40,0.0,0.0,81,0.00,,,0.00,Wunderground v.1.15,2013-01-16 14:00:00,
2013-01-16 06:14:00,34.0,28.8,30.41,NE,40,0.0,0.0,81,0.00,,,0.00,Wunderground v.1.15,2013-01-16 14:14:00,
2013-01-16 06:20:00,33.9,29.0,30.41,NE,40,0.0,0.0,82,0.00,,,0.00,Wunderground v.1.15,2013-01-16 14:20:00,
2013-01-16 06:30:00,34.5,29.9,30.41,NE,40,0.0,0.0,83,0.00,,,0.00,Wunderground v.1.15,2013-01-16 14:30:00,
2013-01-16 06:35:00,34.7,29.8,30.41,NE,39,0.0,0.0,82,0.00,,,0.00,Wunderground v.1.15,2013-01-16 14:35:00,
2013-01-16 06:45:00,34.2,29.3,30.41,NE,39,0.0,0.0,82,0.00,,,0.00,Wunderground v.1.15,2013-01-16 14:45:00,
2013-01-16 06:54:00,34.3,29.7,30.41,NE,39,0.0,0.0,83,0.00,,,0.00,Wunderground v.1.15,2013-01-16 14:54:00,
2013-01-16 07:05:00,34.8,30.2,30.41,NE,39,0.0,0.0,83,0.00,,,0.00,Wunderground v.1.15,2013-01-16 15:05:00,
2013-01-16 07:10:00,35.1,30.2,30.41,NE,40,0.0,0.0,82,0.00,,,0.00,Wunderground v.1.15,2013-01-16 15:10:00,
2013-01-16 07:40:00,34.8,29.9,30.42,NE,39,0.0,0.0,82,0.00,,,0.00,Wunderground v.1.15,2013-01-16 15:40:00,
2013-01-16 07:55:00,35.3,30.4,30.42,NE,39,0.0,0.0,82,0.00,,,0.00,Wunderground v.1.15,2013-01-16 15:55:00,
2013-01-16 08:15:00,36.3,31.0,30.42,NE,40,0.0,0.0,81,0.00,,,0.00,Wunderground v.1.15,2013-01-16 16:15:00,
2013-01-16 08:30:00,38.2,31.9,30.42,NE,40,0.0,0.0,78,0.00,,,0.00,Wunderground v.1.15,2013-01-16 16:30:00,
2013-01-16 08:40:00,39.7,32.8,30.42,NE,40,0.0,0.0,76,0.00,,,0.00,Wunderground v.1.15,2013-01-16 16:40:00,
2013-01-16 08:55:00,42.0,32.9,30.42,NE,40,0.0,0.0,70,0.00,,,0.00,Wunderground v.1.15,2013-01-16 16:55:00,
2013-01-16 09:05:00,43.3,32.7,30.42,NE,39,0.0,0.0,66,0.00,,,0.00,Wunderground v.1.15,2013-01-16 17:05:00,
2013-01-16 09:15:00,43.7,34.2,30.42,NE,39,0.0,0.0,69,0.00,,,0.00,Wunderground v.1.15,2013-01-16 17:15:00,
2013-01-16 09:25:00,44.0,33.7,30.42,NE,39,0.0,0.0,67,0.00,,,0.00,Wunderground v.1.15,2013-01-16 17:25:00,
2013-01-16 09:35:00,44.5,34.2,30.42,NNW,329,0.0,0.0,67,0.00,,,0.00,Wunderground v.1.15,2013-01-16 17:35:00,
2013-01-16 09:40:00,44.9,33.8,30.42,NNW,329,0.0,0.0,65,0.00,,,0.00,Wunderground v.1.15,2013-01-16 17:40:00,
2013-01-16 09:50:00,46.0,32.9,30.42,NNW,329,0.0,0.0,60,0.00,,,0.00,Wunderground v.1.15,2013-01-16 17:50:00,
2013-01-16 09:55:00,46.1,33.4,30.42,NNW,329,0.0,0.0,61,0.00,,,0.00,Wunderground v.1.15,2013-01-16 17:55:00,
2013-01-16 10:04:00,46.1,31.7,30.42,NNW,343,1.0,4.0,57,0.00,,,0.00,Wunderground v.1.15,2013-01-16 18:04:00,
2013-01-16 10:20:00,47.0,32.5,30.41,NNW,338,1.0,1.0,57,0.00,,,0.00,Wunderground v.1.15,2013-01-16 18:20:00,
2013-01-16 10:25:00,47.2,31.8,30.41,North,360,1.0,1.0,55,0.00,,,0.00,Wunderground v.1.15,2013-01-16 18:25:00,
2013-01-16 10:35:00,47.4,32.5,30.41,North,355,1.0,2.0,56,0.00,,,0.00,Wunderground v.1.15,2013-01-16 18:35:00,
2013-01-16 10:40:00,47.5,32.6,30.41,NNE,17,2.0,4.0,56,0.00,,,0.00,Wunderground v.1.15,2013-01-16 18:40:00,
2013-01-16 10:45:00,47.4,32.9,30.40,NNE,14,3.0,4.0,57,0.00,,,0.00,Wunderground v.1.15,2013-01-16 18:45:00,
2013-01-16 10:50:00,47.8,32.4,30.40,NNE,17,3.0,3.0,55,0.00,,,0.00,Wunderground v.1.15,2013-01-16 18:50:00,
2013-01-16 11:05:00,49.5,31.6,30.40,ENE,68,3.0,3.0,50,0.00,,,0.00,Wunderground v.1.15,2013-01-16 19:05:00,
2013-01-16 11:15:00,50.3,31.3,30.39,ENE,67,3.0,10.0,48,0.00,,,0.00,Wunderground v.1.15,2013-01-16 19:15:00,
2013-01-16 11:20:00,50.4,31.9,30.39,NE,51,3.0,4.0,49,0.00,,,0.00,Wunderground v.1.15,2013-01-16 19:20:00,
2013-01-16 11:25:00,50.9,32.4,30.39,NE,52,2.0,4.0,49,0.00,,,0.00,Wunderground v.1.15,2013-01-16 19:25:00,
2013-01-16 11:30:00,51.0,32.5,30.39,NE,44,2.0,5.0,49,0.00,,,0.00,Wunderground v.1.15,2013-01-16 19:30:00,
2013-01-16 11:40:00,51.0,32.0,30.38,ENE,70,3.0,3.0,48,0.00,,,0.00,Wunderground v.1.15,2013-01-16 19:40:00,
2013-01-16 12:05:00,51.4,31.8,30.36,NE,53,3.0,3.0,47,0.00,,,0.00,Wunderground v.1.15,2013-01-16 20:05:00,
2013-01-16 12:20:00,51.9,32.3,30.35,NNE,18,3.0,3.0,47,0.00,,,0.00,Wunderground v.1.15,2013-01-16 20:20:00,
2013-01-16 12:35:00,53.2,32.4,30.34,NNE,31,2.0,4.0,45,0.00,,,0.00,Wunderground v.1.15,2013-01-16 20:35:00,
2013-01-16 12:40:00,53.1,31.7,30.34,NNE,22,3.0,3.0,44,0.00,,,0.00,Wunderground v.1.15,2013-01-16 20:40:00,
2013-01-16 12:45:00,53.2,32.4,30.34,NNW,341,2.0,3.0,45,0.00,,,0.00,Wunderground v.1.15,2013-01-16 20:45:00,
2013-01-16 12:50:00,53.6,32.2,30.34,NE,34,2.0,4.0,44,0.00,,,0.00,Wunderground v.1.15,2013-01-16 20:50:00,
2013-01-16 13:00:00,53.4,32.0,30.33,East,87,3.0,4.0,44,0.00,,,0.00,Wunderground v.1.15,2013-01-16 21:00:00,
2013-01-16 13:10:00,53.5,32.7,30.33,NE,49,3.0,3.0,45,0.00,,,0.00,Wunderground v.1.15,2013-01-16 21:10:00,
2013-01-16 13:20:00,53.9,33.6,30.33,NE,38,3.0,3.0,46,0.00,,,0.00,Wunderground v.1.15,2013-01-16 21:20:00,
2013-01-16 13:30:00,54.1,33.2,30.32,ENE,61,2.0,2.0,45,0.00,,,0.00,Wunderground v.1.15,2013-01-16 21:30:00,
2013-01-16 13:55:00,54.6,33.7,30.32,East,98,2.0,2.0,45,0.00,,,0.00,Wunderground v.1.15,2013-01-16 21:55:00,
2013-01-16 14:05:00,54.5,33.6,30.31,North,355,2.0,2.0,45,0.00,,,0.00,Wunderground v.1.15,2013-01-16 22:05:00,
2013-01-16 14:14:00,54.1,33.8,30.31,NE,34,3.0,4.0,46,0.00,,,0.00,Wunderground v.1.15,2013-01-16 22:14:00,
2013-01-16 14:25:00,54.1,34.3,30.31,NE,49,3.0,3.0,47,0.00,,,0.00,Wunderground v.1.15,2013-01-16 22:25:00,
2013-01-16 14:30:00,54.3,34.5,30.31,NE,42,2.0,2.0,47,0.00,,,0.00,Wunderground v.1.15,2013-01-16 22:30:00,
2013-01-16 14:45:00,54.7,34.8,30.31,ENE,64,2.0,2.0,47,0.00,,,0.00,Wunderground v.1.15,2013-01-16 22:45:00,
2013-01-16 14:55:00,54.6,34.8,30.31,ENE,60,2.0,3.0,47,0.00,,,0.00,Wunderground v.1.15,2013-01-16 22:55:00,
2013-01-16 15:00:00,54.7,34.8,30.31,ENE,64,2.0,2.0,47,0.00,,,0.00,Wunderground v.1.15,2013-01-16 23:00:00,
2013-01-16 15:10:00,54.1,34.8,30.31,SSE,163,3.0,3.0,48,0.00,,,0.00,Wunderground v.1.15,2013-01-16 23:10:00,
2013-01-16 15:15:00,53.6,34.9,30.31,East,89,3.0,6.0,49,0.00,,,0.00,Wunderground v.1.15,2013-01-16 23:15:00,
2013-01-16 15:30:00,53.2,35.0,30.31,NE,35,2.0,2.0,50,0.00,,,0.00,Wunderground v.1.15,2013-01-16 23:30:00,
2013-01-16 15:40:00,52.3,34.7,30.31,East,98,3.0,4.0,51,0.00,,,0.00,Wunderground v.1.15,2013-01-16 23:40:00,
2013-01-16 15:55:00,51.4,34.8,30.31,East,86,2.0,2.0,53,0.00,,,0.00,Wunderground v.1.15,2013-01-16 23:55:00,
2013-01-16 16:10:00,50.6,35.0,30.31,East,99,3.0,4.0,55,0.00,,,0.00,Wunderground v.1.15,2013-01-17 00:10:00,
2013-01-16 16:20:00,50.4,35.3,30.31,East,80,2.0,2.0,56,0.00,,,0.00,Wunderground v.1.15,2013-01-17 00:20:00,
2013-01-16 16:39:00,49.5,34.9,30.31,ESE,106,3.0,3.0,57,0.00,,,0.00,Wunderground v.1.15,2013-01-17 00:39:00,
2013-01-16 16:45:00,49.4,35.2,30.31,East,88,2.0,3.0,58,0.00,,,0.00,Wunderground v.1.15,2013-01-17 00:45:00,
2013-01-16 16:55:00,49.1,34.9,30.31,ESE,111,2.0,2.0,58,0.00,,,0.00,Wunderground v.1.15,2013-01-17 00:55:00,
2013-01-16 17:25:00,48.1,34.4,30.30,SE,134,1.0,1.0,59,0.00,,,0.00,Wunderground v.1.15,2013-01-17 01:25:00,
2013-01-16 17:35:00,47.9,34.7,30.30,ESE,104,2.0,4.0,60,0.00,,,0.00,Wunderground v.1.15,2013-01-17 01:35:00,
2013-01-16 17:40:00,47.9,34.7,30.30,ESE,117,3.0,5.0,60,0.00,,,0.00,Wunderground v.1.15,2013-01-17 01:40:00,
2013-01-16 17:55:00,47.8,34.6,30.29,ESE,103,3.0,4.0,60,0.00,,,0.00,Wunderground v.1.15,2013-01-17 01:55:00,
2013-01-16 18:05:00,47.2,34.4,30.29,East,95,1.0,1.0,61,0.00,,,0.00,Wunderground v.1.15,2013-01-17 02:05:00,
2013-01-16 18:10:00,46.9,34.6,30.30,East,95,0.0,0.0,62,0.00,,,0.00,Wunderground v.1.15,2013-01-17 02:10:00,
2013-01-16 18:20:00,46.5,34.6,30.29,ENE,71,0.0,0.0,63,0.00,,,0.00,Wunderground v.1.15,2013-01-17 02:20:00,
2013-01-16 18:25:00,46.1,34.2,30.29,ENE,71,0.0,0.0,63,0.00,,,0.00,Wunderground v.1.15,2013-01-17 02:25:00,
2013-01-16 18:34:00,45.1,34.0,30.29,ENE,71,0.0,0.0,65,0.00,,,0.00,Wunderground v.1.15,2013-01-17 02:34:00,
2013-01-16 18:40:00,44.4,34.1,30.29,ENE,71,0.0,0.0,67,0.00,,,0.00,Wunderground v.1.15,2013-01-17 02:40:00,
2013-01-16 18:50:00,44.1,34.2,30.29,ENE,71,0.0,0.0,68,0.00,,,0.00,Wunderground v.1.15,2013-01-17 02:50:00,
2013-01-16 19:00:00,43.3,33.8,30.29,ENE,71,0.0,0.0,69,0.00,,,0.00,Wunderground v.1.15,2013-01-17 03:00:00,
2013-01-16 19:05:00,43.1,34.0,30.29,ENE,71,0.0,0.0,70,0.00,,,0.00,Wunderground v.1.15,2013-01-17 03:05:00,
2013-01-16 19:15:00,42.7,33.9,30.29,ENE,71,0.0,0.0,71,0.00,,,0.00,Wunderground v.1.15,2013-01-17 03:15:00,
2013-01-16 19:25:00,42.2,33.8,30.29,ENE,71,0.0,0.0,72,0.00,,,0.00,Wunderground v.1.15,2013-01-17 03:25:00,
2013-01-16 19:30:00,42.3,33.9,30.28,ENE,71,0.0,0.0,72,0.00,,,0.00,Wunderground v.1.15,2013-01-17 03:30:00,
2013-01-16 19:50:00,42.4,34.4,30.28,ENE,71,0.0,0.0,73,0.00,,,0.00,Wunderground v.1.15,2013-01-17 03:50:00,
2013-01-16 20:00:00,42.2,34.2,30.28,ENE,71,0.0,0.0,73,0.00,,,0.00,Wunderground v.1.15,2013-01-17 04:00:00,
2013-01-16 20:15:00,42.6,34.2,30.28,ENE,71,0.0,0.0,72,0.00,,,0.00,Wunderground v.1.15,2013-01-17 04:15:00,
2013-01-16 20:25:00,42.7,34.3,30.28,ENE,71,0.0,0.0,72,0.00,,,0.00,Wunderground v.1.15,2013-01-17 04:25:00,
2013-01-16 20:40:00,42.5,34.1,30.28,ENE,71,0.0,0.0,72,0.00,,,0.00,Wunderground v.1.15,2013-01-17 04:40:00,
2013-01-16 20:45:00,42.4,34.4,30.28,ENE,71,0.0,0.0,73,0.00,,,0.00,Wunderground v.1.15,2013-01-17 04:45:00,
2013-01-16 21:15:00,40.5,33.5,30.28,ENE,71,0.0,1.0,76,0.00,,,0.00,Wunderground v.1.15,2013-01-17 05:15:00,
2013-01-16 21:35:00,40.5,33.9,30.28,South,178,0.0,0.0,77,0.00,,,0.00,Wunderground v.1.15,2013-01-17 05:35:00,
2013-01-16 21:40:00,40.4,33.4,30.28,South,178,0.0,0.0,76,0.00,,,0.00,Wunderground v.1.15,2013-01-17 05:40:00,
2013-01-16 21:50:00,40.2,33.6,30.27,South,178,0.0,0.0,77,0.00,,,0.00,Wunderground v.1.15,2013-01-17 05:50:00,
2013-01-16 22:00:00,40.0,33.4,30.27,South,178,0.0,0.0,77,0.00,,,0.00,Wunderground v.1.15,2013-01-17 06:00:00,
2013-01-16 22:10:00,39.9,33.3,30.27,South,178,0.0,0.0,77,0.00,,,0.00,Wunderground v.1.15,2013-01-17 06:10:00,
2013-01-16 22:25:00,40.2,33.2,30.28,South,178,0.0,0.0,76,0.00,,,0.00,Wunderground v.1.15,2013-01-17 06:25:00,
2013-01-16 22:35:00,40.2,33.2,30.28,South,178,0.0,0.0,76,0.00,,,0.00,Wunderground v.1.15,2013-01-17 06:35:00,
2013-01-16 22:55:00,39.9,32.6,30.28,South,178,0.0,0.0,75,0.00,,,0.00,Wunderground v.1.15,2013-01-17 06:55:00,
2013-01-16 23:05:00,40.1,32.5,30.27,South,178,0.0,0.0,74,0.00,,,0.00,Wunderground v.1.15,2013-01-17 07:05:00,
2013-01-16 23:10:00,40.0,32.4,30.27,South,178,0.0,0.0,74,0.00,,,0.00,Wunderground v.1.15,2013-01-17 07:10:00,
2013-01-16 23:24:00,39.8,32.2,30.27,South,178,0.0,0.0,74,0.00,,,0.00,Wunderground v.1.15,2013-01-17 07:24:00,
2013-01-16 23:30:00,39.8,32.2,30.27,South,178,0.0,0.0,74,0.00,,,0.00,Wunderground v.1.15,2013-01-17 07:30:00,
2013-01-16 23:35:00,39.8,32.2,30.27,South,178,0.0,0.0,74,0.00,,,0.00,Wunderground v.1.15,2013-01-17 07:35:00,
2013-01-16 23:45:00,39.9,32.3,30.27,South,178,0.0,0.0,74,0.00,,,0.00,Wunderground v.1.15,2013-01-17 07:45:00,
2013-01-16 23:50:00,39.8,32.2,30.27,South,178,0.0,0.0,74,0.00,,,0.00,Wunderground v.1.15,2013-01-17 07:50:00,
2013-01-16 23:55:00,39.8,31.8,30.27,South,178,0.0,0.0,73,0.00,,,0.00,Wunderground v.1.15,2013-01-17 07:55:00,